sensor_id;sensor_type;location;lat;lon;timestamp;pressure;altitude;pressure_sealevel;temperature;humidity
56272;BME280;42177;48.914;18.160;2023-02-12T00:02:05;998.6;;;5.4;100
56272;BME280;42177;48.914;18.160;2023-02-12T00:07:05;998.6;;;5.4;100
56272;BME280;42177;48.914;18.160;2023-02-12T00:12:06;998.6;;;5.4;100
56272;BME280;42177;48.914;18.160;2023-02-12T00:17:05;998.6;;;5.4;100
56272;BME280;42177;48.914;18.160;2023-02-12T00:22:05;998.7;;;5.6;100
56272;BME280;42177;48.914;18.160;2023-02-12T00:27:05;998.7;;;5.6;100
56272;BME280;42177;48.914;18.160;2023-02-12T00:32:05;998.9;;;5.7;100
56272;BME280;42177;48.914;18.160;2023-02-12T00:37:05;998.9;;;5.7;100
56272;BME280;42177;48.914;18.160;2023-02-12T00:42:05;998.9;;;5.8;100
56272;BME280;42177;48.914;18.160;2023-02-12T00:47:05;998.9;;;5.8;100
56272;BME280;42177;48.914;18.160;2023-02-12T00:52:05;998.9;;;5.6;100
56272;BME280;42177;48.914;18.160;2023-02-12T00:57:05;998.9;;;5.6;100
56272;BME280;42177;48.914;18.160;2023-02-12T01:02:05;999;;;5.7;100
56272;BME280;42177;48.914;18.160;2023-02-12T01:07:05;999;;;5.7;100
56272;BME280;42177;48.914;18.160;2023-02-12T01:12:05;999;;;5.5;100
56272;BME280;42177;48.914;18.160;2023-02-12T01:17:06;999;;;5.5;100
56272;BME280;42177;48.914;18.160;2023-02-12T01:22:05;998.9;;;5.5;100
56272;BME280;42177;48.914;18.160;2023-02-12T01:27:05;998.9;;;5.5;100
56272;BME280;42177;48.914;18.160;2023-02-12T01:32:05;999;;;5.5;100
56272;BME280;42177;48.914;18.160;2023-02-12T01:37:05;999;;;5.5;100
56272;BME280;42177;48.914;18.160;2023-02-12T01:42:05;999.1;;;5.6;100
56272;BME280;42177;48.914;18.160;2023-02-12T01:47:05;999.1;;;5.6;100
56272;BME280;42177;48.914;18.160;2023-02-12T01:52:06;999.2;;;5.8;100
56272;BME280;42177;48.914;18.160;2023-02-12T01:57:05;999.2;;;5.8;100
56272;BME280;42177;48.914;18.160;2023-02-12T02:02:05;999.2;;;5.7;100
56272;BME280;42177;48.914;18.160;2023-02-12T02:07:05;999.2;;;5.7;100
56272;BME280;42177;48.914;18.160;2023-02-12T02:12:05;999.3;;;5.8;100
56272;BME280;42177;48.914;18.160;2023-02-12T02:17:08;999.3;;;5.8;100
56272;BME280;42177;48.914;18.160;2023-02-12T02:22:10;999.3;;;5.6;100
56272;BME280;42177;48.914;18.160;2023-02-12T02:27:10;999.3;;;5.6;100
56272;BME280;42177;48.914;18.160;2023-02-12T02:32:06;999.3;;;5.7;99.4
56272;BME280;42177;48.914;18.160;2023-02-12T02:37:07;999.3;;;5.7;99.4
56272;BME280;42177;48.914;18.160;2023-02-12T02:42:07;999.5;;;5.4;100
56272;BME280;42177;48.914;18.160;2023-02-12T02:47:06;999.5;;;5.4;100
56272;BME280;42177;48.914;18.160;2023-02-12T02:52:06;999.5;;;5.4;99.5
56272;BME280;42177;48.914;18.160;2023-02-12T02:57:07;999.5;;;5.4;99.5
56272;BME280;42177;48.914;18.160;2023-02-12T03:02:06;999.6;;;5.3;99.7
56272;BME280;42177;48.914;18.160;2023-02-12T03:07:07;999.6;;;5.3;99.7
56272;BME280;42177;48.914;18.160;2023-02-12T03:12:08;999.7;;;5.3;99.5
56272;BME280;42177;48.914;18.160;2023-02-12T03:17:06;999.7;;;5.3;99.5
56272;BME280;42177;48.914;18.160;2023-02-12T03:22:07;999.7;;;5.3;99.9
56272;BME280;42177;48.914;18.160;2023-02-12T03:27:06;999.7;;;5.3;99.9
56272;BME280;42177;48.914;18.160;2023-02-12T03:32:09;999.7;;;5.3;99.3
56272;BME280;42177;48.914;18.160;2023-02-12T03:37:07;999.7;;;5.3;99.3
56272;BME280;42177;48.914;18.160;2023-02-12T03:42:06;999.8;;;5.3;100
56272;BME280;42177;48.914;18.160;2023-02-12T03:47:08;999.8;;;5.3;100
56272;BME280;42177;48.914;18.160;2023-02-12T03:52:05;1000;;;5.3;100
56272;BME280;42177;48.914;18.160;2023-02-12T03:57:06;1000;;;5.3;100
56272;BME280;42177;48.914;18.160;2023-02-12T04:02:06;999.9;;;5.2;100
56272;BME280;42177;48.914;18.160;2023-02-12T04:07:05;999.9;;;5.2;100
56272;BME280;42177;48.914;18.160;2023-02-12T04:12:08;1000.2;;;5.3;100
56272;BME280;42177;48.914;18.160;2023-02-12T04:17:08;1000.2;;;5.3;100
56272;BME280;42177;48.914;18.160;2023-02-12T04:22:10;1000.2;;;5.2;100
56272;BME280;42177;48.914;18.160;2023-02-12T04:27:07;1000.2;;;5.2;100
56272;BME280;42177;48.914;18.160;2023-02-12T04:32:06;1000.5;;;5.3;99.5
56272;BME280;42177;48.914;18.160;2023-02-12T04:37:06;1000.5;;;5.3;99.5
56272;BME280;42177;48.914;18.160;2023-02-12T04:42:05;1000.6;;;5.5;100
56272;BME280;42177;48.914;18.160;2023-02-12T04:47:05;1000.6;;;5.5;100
56272;BME280;42177;48.914;18.160;2023-02-12T04:52:05;1000.6;;;5.4;98.7
56272;BME280;42177;48.914;18.160;2023-02-12T04:57:05;1000.6;;;5.4;98.7
56272;BME280;42177;48.914;18.160;2023-02-12T05:02:05;1000.8;;;5.3;99.2
56272;BME280;42177;48.914;18.160;2023-02-12T05:07:05;1000.8;;;5.3;99.2
56272;BME280;42177;48.914;18.160;2023-02-12T05:12:05;1000.9;;;5.3;99.2
56272;BME280;42177;48.914;18.160;2023-02-12T05:17:05;1000.9;;;5.3;99.2
56272;BME280;42177;48.914;18.160;2023-02-12T05:22:05;1001.1;;;4.8;100
56272;BME280;42177;48.914;18.160;2023-02-12T05:27:05;1001.1;;;4.8;100
56272;BME280;42177;48.914;18.160;2023-02-12T05:32:05;1001.2;;;5.2;100
56272;BME280;42177;48.914;18.160;2023-02-12T05:37:05;1001.2;;;5.2;100
56272;BME280;42177;48.914;18.160;2023-02-12T05:42:05;1001.4;;;5.1;99.5
56272;BME280;42177;48.914;18.160;2023-02-12T05:47:05;1001.4;;;5.1;99.5
56272;BME280;42177;48.914;18.160;2023-02-12T05:52:05;1001.2;;;5.2;99.6
56272;BME280;42177;48.914;18.160;2023-02-12T05:57:05;1001.2;;;5.2;99.6
56272;BME280;42177;48.914;18.160;2023-02-12T06:02:05;1001.6;;;5.3;100
56272;BME280;42177;48.914;18.160;2023-02-12T06:07:05;1001.6;;;5.3;100
56272;BME280;42177;48.914;18.160;2023-02-12T06:12:05;1001.8;;;5.2;98.8
56272;BME280;42177;48.914;18.160;2023-02-12T06:17:05;1001.8;;;5.2;98.8
56272;BME280;42177;48.914;18.160;2023-02-12T06:22:05;1002;;;4.9;100
56272;BME280;42177;48.914;18.160;2023-02-12T06:27:05;1002;;;4.9;100
56272;BME280;42177;48.914;18.160;2023-02-12T06:32:05;1002.1;;;5.1;100
56272;BME280;42177;48.914;18.160;2023-02-12T06:37:05;1002.1;;;5.1;100
56272;BME280;42177;48.914;18.160;2023-02-12T06:42:05;1002.2;;;5.3;99.9
56272;BME280;42177;48.914;18.160;2023-02-12T06:47:05;1002.2;;;5.3;99.9
56272;BME280;42177;48.914;18.160;2023-02-12T06:52:05;1002.4;;;5.6;100
56272;BME280;42177;48.914;18.160;2023-02-12T06:57:05;1002.4;;;5.6;100
56272;BME280;42177;48.914;18.160;2023-02-12T07:02:05;1002.6;;;5.4;98.3
56272;BME280;42177;48.914;18.160;2023-02-12T07:07:05;1002.6;;;5.4;98.3
56272;BME280;42177;48.914;18.160;2023-02-12T07:12:05;1002.7;;;5.5;98.3
56272;BME280;42177;48.914;18.160;2023-02-12T07:17:05;1002.7;;;5.5;98.3
56272;BME280;42177;48.914;18.160;2023-02-12T07:22:05;1002.7;;;5.8;97.7
56272;BME280;42177;48.914;18.160;2023-02-12T07:27:05;1002.7;;;5.8;97.7
56272;BME280;42177;48.914;18.160;2023-02-12T07:32:05;1002.9;;;5.7;98.6
56272;BME280;42177;48.914;18.160;2023-02-12T07:37:05;1002.9;;;5.7;98.6
56272;BME280;42177;48.914;18.160;2023-02-12T09:03:10;1003.7;;;9;82.7
56272;BME280;42177;48.914;18.160;2023-02-12T09:08:10;1003.7;;;9;82.7
56272;BME280;42177;48.914;18.160;2023-02-12T09:13:11;1004;;;8.5;86
56272;BME280;42177;48.914;18.160;2023-02-12T09:18:10;1004;;;8.5;86
56272;BME280;42177;48.914;18.160;2023-02-12T09:23:11;1004.1;;;8;86.7
56272;BME280;42177;48.914;18.160;2023-02-12T09:28:10;1004.1;;;8;86.7
56272;BME280;42177;48.914;18.160;2023-02-12T09:33:10;1004.2;;;7.8;87.4
56272;BME280;42177;48.914;18.160;2023-02-12T09:38:10;1004.2;;;7.8;87.4
56272;BME280;42177;48.914;18.160;2023-02-12T09:43:12;1004.3;;;7.9;88.3
56272;BME280;42177;48.914;18.160;2023-02-12T09:48:13;1004.3;;;7.9;88.3
56272;BME280;42177;48.914;18.160;2023-02-12T09:53:10;1004.3;;;7.6;88.9
56272;BME280;42177;48.914;18.160;2023-02-12T09:58:11;1004.3;;;7.6;88.9
56272;BME280;42177;48.914;18.160;2023-02-12T10:03:11;1004.4;;;8;87.9
56272;BME280;42177;48.914;18.160;2023-02-12T10:08:14;1004.4;;;8;87.9
56272;BME280;42177;48.914;18.160;2023-02-12T10:13:12;1004.5;;;10;80.3
56272;BME280;42177;48.914;18.160;2023-02-12T10:18:17;1004.5;;;10;80.3
56272;BME280;42177;48.914;18.160;2023-02-12T10:23:14;1004.6;;;10.8;75.1
56272;BME280;42177;48.914;18.160;2023-02-12T10:28:11;1004.6;;;10.8;75.1
56272;BME280;42177;48.914;18.160;2023-02-12T10:33:11;1004.5;;;9.6;77.3
56272;BME280;42177;48.914;18.160;2023-02-12T10:38:12;1004.5;;;9.6;77.3
56272;BME280;42177;48.914;18.160;2023-02-12T10:43:10;1004.6;;;9.5;78.5
56272;BME280;42177;48.914;18.160;2023-02-12T10:48:12;1004.6;;;9.5;78.5
56272;BME280;42177;48.914;18.160;2023-02-12T10:53:12;1004.6;;;10.2;75.4
56272;BME280;42177;48.914;18.160;2023-02-12T10:58:18;1004.6;;;10.2;75.4
56272;BME280;42177;48.914;18.160;2023-02-12T11:03:19;1004.6;;;11.6;68.5
56272;BME280;42177;48.914;18.160;2023-02-12T11:08:19;1004.6;;;11.6;68.5
56272;BME280;42177;48.914;18.160;2023-02-12T11:13:19;1004.3;;;11.6;65
56272;BME280;42177;48.914;18.160;2023-02-12T11:18:12;1004.3;;;11.6;65
56272;BME280;42177;48.914;18.160;2023-02-12T11:23:21;1004.4;;;11.7;62
56272;BME280;42177;48.914;18.160;2023-02-12T11:28:13;1004.4;;;11.7;62
56272;BME280;42177;48.914;18.160;2023-02-12T11:33:14;1004.5;;;10.5;65.4
56272;BME280;42177;48.914;18.160;2023-02-12T11:38:14;1004.5;;;10.5;65.4
56272;BME280;42177;48.914;18.160;2023-02-12T11:43:13;1004.3;;;11.5;60.5
56272;BME280;42177;48.914;18.160;2023-02-12T11:48:12;1004.3;;;11.5;60.5
56272;BME280;42177;48.914;18.160;2023-02-12T11:53:16;1004.3;;;11.8;59.2
56272;BME280;42177;48.914;18.160;2023-02-12T11:58:13;1004.3;;;11.8;59.2
56272;BME280;42177;48.914;18.160;2023-02-12T12:03:11;1004.2;;;10.5;64.7
56272;BME280;42177;48.914;18.160;2023-02-12T12:08:12;1004.2;;;10.5;64.7
56272;BME280;42177;48.914;18.160;2023-02-12T12:13:11;1004.3;;;9.8;65.7
56272;BME280;42177;48.914;18.160;2023-02-12T12:18:12;1004.3;;;9.8;65.7
56272;BME280;42177;48.914;18.160;2023-02-12T12:23:12;1004.4;;;10.3;65.5
56272;BME280;42177;48.914;18.160;2023-02-12T12:28:13;1004.4;;;10.3;65.5
56272;BME280;42177;48.914;18.160;2023-02-12T12:33:12;1004.3;;;10.2;63.8
56272;BME280;42177;48.914;18.160;2023-02-12T12:38:13;1004.3;;;10.2;63.8
56272;BME280;42177;48.914;18.160;2023-02-12T12:43:12;1004.1;;;11.5;56.5
56272;BME280;42177;48.914;18.160;2023-02-12T12:48:13;1004.1;;;11.5;56.5
56272;BME280;42177;48.914;18.160;2023-02-12T12:53:14;1004.1;;;12.5;52.8
56272;BME280;42177;48.914;18.160;2023-02-12T12:58:11;1004.1;;;12.5;52.8
56272;BME280;42177;48.914;18.160;2023-02-12T13:03:15;1004.1;;;11.7;53.3
56272;BME280;42177;48.914;18.160;2023-02-12T13:08:12;1004.1;;;11.7;53.3
56272;BME280;42177;48.914;18.160;2023-02-12T13:13:16;1004;;;11.6;53.3
56272;BME280;42177;48.914;18.160;2023-02-12T13:18:13;1004;;;11.6;53.3
56272;BME280;42177;48.914;18.160;2023-02-12T13:23:12;1004;;;12;50.6
56272;BME280;42177;48.914;18.160;2023-02-12T13:28:12;1004;;;12;50.6
56272;BME280;42177;48.914;18.160;2023-02-12T13:33:11;1004;;;11.6;51.1
56272;BME280;42177;48.914;18.160;2023-02-12T13:38:12;1004;;;11.6;51.1
56272;BME280;42177;48.914;18.160;2023-02-12T13:43:13;1004.1;;;12;49.2
56272;BME280;42177;48.914;18.160;2023-02-12T13:48:15;1004.1;;;12;49.2
56272;BME280;42177;48.914;18.160;2023-02-12T13:53:13;1004;;;11.9;48.2
56272;BME280;42177;48.914;18.160;2023-02-12T13:58:37;1004;;;11.9;48.2
56272;BME280;42177;48.914;18.160;2023-02-12T14:03:10;1004.1;;;10.9;50.1
56272;BME280;42177;48.914;18.160;2023-02-12T14:08:20;1004.1;;;10.9;50.1
56272;BME280;42177;48.914;18.160;2023-02-12T14:13:12;1004.3;;;10.3;51.9
56272;BME280;42177;48.914;18.160;2023-02-12T14:18:27;1004.3;;;10.3;51.9
56272;BME280;42177;48.914;18.160;2023-02-12T14:23:20;1004.3;;;9.7;53.5
56272;BME280;42177;48.914;18.160;2023-02-12T14:28:16;1004.3;;;9.7;53.5
56272;BME280;42177;48.914;18.160;2023-02-12T14:33:26;1004.4;;;9.2;55.8
56272;BME280;42177;48.914;18.160;2023-02-12T14:43:29;1004.4;;;9.1;57.8
56272;BME280;42177;48.914;18.160;2023-02-12T14:48:11;1004.4;;;9.1;57.8
56272;BME280;42177;48.914;18.160;2023-02-12T14:53:16;1004.4;;;9.1;59.4
56272;BME280;42177;48.914;18.160;2023-02-12T14:58:14;1004.4;;;9.1;59.4
56272;BME280;42177;48.914;18.160;2023-02-12T15:03:19;1004.5;;;8.8;60.1
56272;BME280;42177;48.914;18.160;2023-02-12T15:08:12;1004.5;;;8.8;60.1
56272;BME280;42177;48.914;18.160;2023-02-12T15:13:12;1004.6;;;8.7;60.8
56272;BME280;42177;48.914;18.160;2023-02-12T15:18:10;1004.6;;;8.7;60.8
56272;BME280;42177;48.914;18.160;2023-02-12T15:23:43;1004.5;;;8.4;62.1
56272;BME280;42177;48.914;18.160;2023-02-12T15:28:14;1004.5;;;8.4;62.1
56272;BME280;42177;48.914;18.160;2023-02-12T15:33:17;1004.5;;;8.2;62.9
56272;BME280;42177;48.914;18.160;2023-02-12T15:38:15;1004.5;;;8.2;62.9
56272;BME280;42177;48.914;18.160;2023-02-12T15:43:15;1004.5;;;8.1;63.8
56272;BME280;42177;48.914;18.160;2023-02-12T15:48:11;1004.5;;;8.1;63.8
56272;BME280;42177;48.914;18.160;2023-02-12T15:53:10;1004.6;;;8;64.6
56272;BME280;42177;48.914;18.160;2023-02-12T15:58:17;1004.6;;;8;64.6
56272;BME280;42177;48.914;18.160;2023-02-12T16:03:17;1004.7;;;7.9;65.3
56272;BME280;42177;48.914;18.160;2023-02-12T16:08:12;1004.7;;;7.9;65.3
56272;BME280;42177;48.914;18.160;2023-02-12T16:13:11;1004.8;;;7.8;66.5
56272;BME280;42177;48.914;18.160;2023-02-12T16:18:21;1004.8;;;7.8;66.5
56272;BME280;42177;48.914;18.160;2023-02-12T16:23:10;1005;;;7.4;68.2
56272;BME280;42177;48.914;18.160;2023-02-12T16:28:14;1005;;;7.4;68.2
56272;BME280;42177;48.914;18.160;2023-02-12T16:33:30;1005;;;7.6;67.8
56272;BME280;42177;48.914;18.160;2023-02-12T16:38:37;1005;;;7.6;67.8
56272;BME280;42177;48.914;18.160;2023-02-12T16:43:25;1005.2;;;7.3;68.4
56272;BME280;42177;48.914;18.160;2023-02-12T16:48:19;1005.2;;;7.3;68.4
56272;BME280;42177;48.914;18.160;2023-02-12T16:53:21;1005.3;;;7.2;68.4
56272;BME280;42177;48.914;18.160;2023-02-12T16:58:10;1005.3;;;7.2;68.4
56272;BME280;42177;48.914;18.160;2023-02-12T17:03:10;1005.4;;;7.1;69.7
56272;BME280;42177;48.914;18.160;2023-02-12T17:08:11;1005.4;;;7.1;69.7
56272;BME280;42177;48.914;18.160;2023-02-12T17:13:10;1005.5;;;6.6;72
56272;BME280;42177;48.914;18.160;2023-02-12T17:18:10;1005.5;;;6.6;72
56272;BME280;42177;48.914;18.160;2023-02-12T17:23:10;1005.5;;;6.5;71.9
56272;BME280;42177;48.914;18.160;2023-02-12T17:28:10;1005.5;;;6.5;71.9
56272;BME280;42177;48.914;18.160;2023-02-12T17:33:10;1005.6;;;6.3;73.5
56272;BME280;42177;48.914;18.160;2023-02-12T17:38:10;1005.6;;;6.3;73.5
56272;BME280;42177;48.914;18.160;2023-02-12T17:43:10;1005.5;;;6.3;73.8
56272;BME280;42177;48.914;18.160;2023-02-12T17:48:10;1005.5;;;6.3;73.8
56272;BME280;42177;48.914;18.160;2023-02-12T17:53:10;1005.4;;;5.7;76.1
56272;BME280;42177;48.914;18.160;2023-02-12T17:58:10;1005.4;;;5.7;76.1
56272;BME280;42177;48.914;18.160;2023-02-12T18:03:10;1005.5;;;5.7;76.4
56272;BME280;42177;48.914;18.160;2023-02-12T18:08:10;1005.5;;;5.7;76.4
56272;BME280;42177;48.914;18.160;2023-02-12T18:13:10;1005.4;;;5.5;78.1
56272;BME280;42177;48.914;18.160;2023-02-12T18:18:10;1005.4;;;5.5;78.1
56272;BME280;42177;48.914;18.160;2023-02-12T18:23:10;1005.5;;;5.5;78.7
56272;BME280;42177;48.914;18.160;2023-02-12T18:28:10;1005.5;;;5.5;78.7
56272;BME280;42177;48.914;18.160;2023-02-12T18:33:12;1005.6;;;5.5;79.3
56272;BME280;42177;48.914;18.160;2023-02-12T18:38:12;1005.6;;;5.5;79.3
56272;BME280;42177;48.914;18.160;2023-02-12T18:43:10;1005.6;;;5.3;78.9
56272;BME280;42177;48.914;18.160;2023-02-12T18:48:10;1005.6;;;5.3;78.9
56272;BME280;42177;48.914;18.160;2023-02-12T18:53:10;1005.6;;;4.9;80.8
56272;BME280;42177;48.914;18.160;2023-02-12T18:58:10;1005.6;;;4.9;80.8
56272;BME280;42177;48.914;18.160;2023-02-12T19:03:10;1005.6;;;4.9;79.4
56272;BME280;42177;48.914;18.160;2023-02-12T19:08:10;1005.6;;;4.9;79.4
56272;BME280;42177;48.914;18.160;2023-02-12T19:13:10;1005.6;;;4.7;80.6
56272;BME280;42177;48.914;18.160;2023-02-12T19:18:10;1005.6;;;4.7;80.6
56272;BME280;42177;48.914;18.160;2023-02-12T19:23:10;1005.6;;;4.5;81.1
56272;BME280;42177;48.914;18.160;2023-02-12T19:28:10;1005.6;;;4.5;81.1
56272;BME280;42177;48.914;18.160;2023-02-12T19:33:10;1005.7;;;4.4;81.7
56272;BME280;42177;48.914;18.160;2023-02-12T19:38:10;1005.7;;;4.4;81.7
56272;BME280;42177;48.914;18.160;2023-02-12T19:43:10;1005.8;;;4.5;81.5
56272;BME280;42177;48.914;18.160;2023-02-12T19:48:10;1005.8;;;4.5;81.5
56272;BME280;42177;48.914;18.160;2023-02-12T19:53:10;1005.8;;;4.3;82.2
56272;BME280;42177;48.914;18.160;2023-02-12T19:58:10;1005.8;;;4.3;82.2
56272;BME280;42177;48.914;18.160;2023-02-12T20:03:10;1005.7;;;4.3;83.1
56272;BME280;42177;48.914;18.160;2023-02-12T20:08:10;1005.7;;;4.3;83.1
56272;BME280;42177;48.914;18.160;2023-02-12T20:13:10;1005.6;;;4.2;83.7
56272;BME280;42177;48.914;18.160;2023-02-12T20:18:10;1005.6;;;4.2;83.7
56272;BME280;42177;48.914;18.160;2023-02-12T20:23:10;1005.6;;;4;84.4
56272;BME280;42177;48.914;18.160;2023-02-12T20:28:10;1005.6;;;4;84.4
56272;BME280;42177;48.914;18.160;2023-02-12T20:33:10;1005.7;;;3.9;83.9
56272;BME280;42177;48.914;18.160;2023-02-12T20:38:10;1005.7;;;3.9;83.9
56272;BME280;42177;48.914;18.160;2023-02-12T20:43:10;1005.8;;;3.8;84.2
56272;BME280;42177;48.914;18.160;2023-02-12T20:48:10;1005.8;;;3.8;84.2
56272;BME280;42177;48.914;18.160;2023-02-12T20:53:10;1005.7;;;3.9;83.2
56272;BME280;42177;48.914;18.160;2023-02-12T20:58:10;1005.7;;;3.9;83.2
56272;BME280;42177;48.914;18.160;2023-02-12T21:03:10;1005.8;;;4;83.2
56272;BME280;42177;48.914;18.160;2023-02-12T21:08:10;1005.8;;;4;83.2
56272;BME280;42177;48.914;18.160;2023-02-12T21:13:10;1005.9;;;3.6;84.1
56272;BME280;42177;48.914;18.160;2023-02-12T21:18:10;1005.9;;;3.6;84.1
56272;BME280;42177;48.914;18.160;2023-02-12T21:23:10;1006;;;3.7;83.6
56272;BME280;42177;48.914;18.160;2023-02-12T21:28:10;1006;;;3.7;83.6
56272;BME280;42177;48.914;18.160;2023-02-12T21:33:10;1006.2;;;3.6;83.4
56272;BME280;42177;48.914;18.160;2023-02-12T21:38:10;1006.2;;;3.6;83.4
56272;BME280;42177;48.914;18.160;2023-02-12T21:43:10;1006.1;;;3.6;83.7
56272;BME280;42177;48.914;18.160;2023-02-12T21:48:10;1006.1;;;3.6;83.7
56272;BME280;42177;48.914;18.160;2023-02-12T21:53:10;1006.2;;;3.5;84.2
56272;BME280;42177;48.914;18.160;2023-02-12T21:58:10;1006.2;;;3.5;84.2
56272;BME280;42177;48.914;18.160;2023-02-12T22:03:10;1006.3;;;3.4;84.8
56272;BME280;42177;48.914;18.160;2023-02-12T22:08:10;1006.3;;;3.4;84.8
56272;BME280;42177;48.914;18.160;2023-02-12T22:13:10;1006.4;;;3.3;84.4
56272;BME280;42177;48.914;18.160;2023-02-12T22:18:10;1006.4;;;3.3;84.4
56272;BME280;42177;48.914;18.160;2023-02-12T22:23:10;1006.5;;;3.3;84.5
56272;BME280;42177;48.914;18.160;2023-02-12T22:28:10;1006.5;;;3.3;84.5
56272;BME280;42177;48.914;18.160;2023-02-12T22:33:10;1006.6;;;3.3;84.1
56272;BME280;42177;48.914;18.160;2023-02-12T22:38:10;1006.6;;;3.3;84.1
56272;BME280;42177;48.914;18.160;2023-02-12T22:43:10;1006.6;;;3.2;84.4
56272;BME280;42177;48.914;18.160;2023-02-12T22:48:10;1006.6;;;3.2;84.4
56272;BME280;42177;48.914;18.160;2023-02-12T22:53:10;1006.5;;;3;86.6
56272;BME280;42177;48.914;18.160;2023-02-12T22:58:10;1006.5;;;3;86.6
56272;BME280;42177;48.914;18.160;2023-02-12T23:03:10;1006.5;;;3;86.4
56272;BME280;42177;48.914;18.160;2023-02-12T23:08:10;1006.5;;;3;86.4
56272;BME280;42177;48.914;18.160;2023-02-12T23:13:10;1006.3;;;2.6;88.7
56272;BME280;42177;48.914;18.160;2023-02-12T23:18:10;1006.3;;;2.6;88.7
56272;BME280;42177;48.914;18.160;2023-02-12T23:23:10;1006.3;;;2.9;87.8
56272;BME280;42177;48.914;18.160;2023-02-12T23:28:10;1006.3;;;2.9;87.8
56272;BME280;42177;48.914;18.160;2023-02-12T23:33:10;1006.4;;;3;86.9
56272;BME280;42177;48.914;18.160;2023-02-12T23:38:10;1006.4;;;3;86.9
56272;BME280;42177;48.914;18.160;2023-02-12T23:43:10;1006.4;;;3.1;85.8
56272;BME280;42177;48.914;18.160;2023-02-12T23:48:10;1006.4;;;3.1;85.8
56272;BME280;42177;48.914;18.160;2023-02-12T23:53:10;1006.4;;;3.2;86.6
56272;BME280;42177;48.914;18.160;2023-02-12T23:58:10;1006.4;;;3.2;86.6
